sensor_id;sensor_type;location;lat;lon;timestamp;P1;durP1;ratioP1;P2;durP2;ratioP2
817;SDS011;391;51.052;6.954;2023-05-14T00:00:42;9.50;;;8.80;;
817;SDS011;391;51.052;6.954;2023-05-14T00:02:45;9.33;;;8.53;;
817;SDS011;391;51.052;6.954;2023-05-14T00:04:49;10.33;;;9.40;;
817;SDS011;391;51.052;6.954;2023-05-14T00:06:52;10.77;;;9.97;;
817;SDS011;391;51.052;6.954;2023-05-14T00:08:56;9.30;;;8.60;;
817;SDS011;391;51.052;6.954;2023-05-14T00:10:59;10.60;;;9.60;;
817;SDS011;391;51.052;6.954;2023-05-14T00:13:04;9.57;;;8.67;;
817;SDS011;391;51.052;6.954;2023-05-14T00:15:08;9.83;;;8.93;;
817;SDS011;391;51.052;6.954;2023-05-14T00:17:11;9.73;;;8.93;;
817;SDS011;391;51.052;6.954;2023-05-14T00:19:15;11.63;;;9.33;;
817;SDS011;391;51.052;6.954;2023-05-14T00:21:19;10.70;;;9.73;;
817;SDS011;391;51.052;6.954;2023-05-14T00:23:22;9.67;;;8.87;;
817;SDS011;391;51.052;6.954;2023-05-14T00:25:26;11.13;;;10.23;;
817;SDS011;391;51.052;6.954;2023-05-14T00:27:30;9.10;;;8.40;;
817;SDS011;391;51.052;6.954;2023-05-14T00:29:35;9.83;;;9.03;;
817;SDS011;391;51.052;6.954;2023-05-14T00:31:38;9.37;;;8.60;;
817;SDS011;391;51.052;6.954;2023-05-14T00:33:42;9.57;;;8.77;;
817;SDS011;391;51.052;6.954;2023-05-14T00:35:45;9.87;;;9.17;;
817;SDS011;391;51.052;6.954;2023-05-14T00:37:48;9.90;;;9.00;;
817;SDS011;391;51.052;6.954;2023-05-14T00:39:52;9.20;;;8.30;;
817;SDS011;391;51.052;6.954;2023-05-14T00:41:55;10.00;;;9.17;;
817;SDS011;391;51.052;6.954;2023-05-14T00:43:59;10.87;;;9.87;;
817;SDS011;391;51.052;6.954;2023-05-14T00:46:04;10.07;;;9.17;;
817;SDS011;391;51.052;6.954;2023-05-14T00:48:08;11.80;;;10.80;;
817;SDS011;391;51.052;6.954;2023-05-14T00:50:15;12.07;;;11.00;;
817;SDS011;391;51.052;6.954;2023-05-14T00:52:20;14.03;;;12.60;;
817;SDS011;391;51.052;6.954;2023-05-14T00:54:23;12.00;;;10.73;;
817;SDS011;391;51.052;6.954;2023-05-14T00:56:27;10.97;;;9.93;;
817;SDS011;391;51.052;6.954;2023-05-14T00:58:31;10.40;;;9.33;;
817;SDS011;391;51.052;6.954;2023-05-14T01:00:34;9.90;;;8.90;;
817;SDS011;391;51.052;6.954;2023-05-14T01:02:39;10.30;;;9.40;;
817;SDS011;391;51.052;6.954;2023-05-14T01:04:43;9.37;;;8.57;;
817;SDS011;391;51.052;6.954;2023-05-14T01:06:49;8.20;;;7.50;;
817;SDS011;391;51.052;6.954;2023-05-14T01:09:02;9.70;;;8.80;;
817;SDS011;391;51.052;6.954;2023-05-14T01:11:12;9.53;;;8.63;;
817;SDS011;391;51.052;6.954;2023-05-14T01:13:24;8.93;;;8.23;;
817;SDS011;391;51.052;6.954;2023-05-14T01:15:30;9.10;;;8.30;;
817;SDS011;391;51.052;6.954;2023-05-14T01:17:37;9.40;;;8.60;;
817;SDS011;391;51.052;6.954;2023-05-14T01:19:45;8.27;;;7.43;;
817;SDS011;391;51.052;6.954;2023-05-14T01:21:51;9.60;;;8.80;;
817;SDS011;391;51.052;6.954;2023-05-14T01:23:54;10.87;;;7.83;;
817;SDS011;391;51.052;6.954;2023-05-14T01:25:58;9.17;;;8.27;;
817;SDS011;391;51.052;6.954;2023-05-14T01:28:04;8.77;;;8.17;;
817;SDS011;391;51.052;6.954;2023-05-14T01:30:16;9.13;;;8.43;;
817;SDS011;391;51.052;6.954;2023-05-14T01:32:24;10.23;;;8.17;;
817;SDS011;391;51.052;6.954;2023-05-14T01:34:29;9.40;;;8.60;;
817;SDS011;391;51.052;6.954;2023-05-14T01:36:37;9.60;;;8.80;;
817;SDS011;391;51.052;6.954;2023-05-14T01:38:43;10.93;;;9.40;;
817;SDS011;391;51.052;6.954;2023-05-14T01:40:49;9.03;;;8.20;;
817;SDS011;391;51.052;6.954;2023-05-14T01:42:53;9.10;;;8.33;;
817;SDS011;391;51.052;6.954;2023-05-14T01:44:57;8.40;;;7.60;;
817;SDS011;391;51.052;6.954;2023-05-14T01:47:01;8.80;;;8.00;;
817;SDS011;391;51.052;6.954;2023-05-14T01:49:05;8.17;;;7.57;;
817;SDS011;391;51.052;6.954;2023-05-14T01:51:09;7.50;;;6.90;;
817;SDS011;391;51.052;6.954;2023-05-14T01:53:15;8.20;;;7.40;;
817;SDS011;391;51.052;6.954;2023-05-14T01:55:20;7.43;;;6.73;;
817;SDS011;391;51.052;6.954;2023-05-14T01:57:24;7.97;;;7.27;;
817;SDS011;391;51.052;6.954;2023-05-14T01:59:28;7.90;;;7.30;;
817;SDS011;391;51.052;6.954;2023-05-14T02:01:31;7.93;;;7.27;;
817;SDS011;391;51.052;6.954;2023-05-14T02:03:35;6.83;;;6.33;;
817;SDS011;391;51.052;6.954;2023-05-14T02:05:38;7.67;;;7.07;;
817;SDS011;391;51.052;6.954;2023-05-14T02:07:42;8.13;;;7.43;;
817;SDS011;391;51.052;6.954;2023-05-14T02:09:45;7.03;;;6.53;;
817;SDS011;391;51.052;6.954;2023-05-14T02:11:50;7.80;;;7.10;;
817;SDS011;391;51.052;6.954;2023-05-14T02:13:54;7.80;;;7.20;;
817;SDS011;391;51.052;6.954;2023-05-14T02:15:57;7.67;;;6.97;;
817;SDS011;391;51.052;6.954;2023-05-14T02:18:01;7.53;;;6.83;;
817;SDS011;391;51.052;6.954;2023-05-14T02:20:05;9.23;;;8.53;;
817;SDS011;391;51.052;6.954;2023-05-14T02:22:11;8.30;;;7.70;;
817;SDS011;391;51.052;6.954;2023-05-14T02:24:15;7.43;;;6.83;;
817;SDS011;391;51.052;6.954;2023-05-14T02:26:18;7.57;;;6.97;;
817;SDS011;391;51.052;6.954;2023-05-14T02:28:23;7.73;;;7.20;;
817;SDS011;391;51.052;6.954;2023-05-14T02:30:27;7.70;;;7.10;;
817;SDS011;391;51.052;6.954;2023-05-14T02:32:30;6.93;;;6.43;;
817;SDS011;391;51.052;6.954;2023-05-14T02:34:34;6.80;;;6.30;;
817;SDS011;391;51.052;6.954;2023-05-14T02:36:38;7.03;;;6.53;;
817;SDS011;391;51.052;6.954;2023-05-14T02:38:41;6.73;;;6.17;;
817;SDS011;391;51.052;6.954;2023-05-14T02:40:44;7.60;;;7.00;;
817;SDS011;391;51.052;6.954;2023-05-14T02:42:48;8.07;;;7.37;;
817;SDS011;391;51.052;6.954;2023-05-14T02:44:53;7.40;;;6.70;;
817;SDS011;391;51.052;6.954;2023-05-14T02:46:56;7.10;;;6.50;;
817;SDS011;391;51.052;6.954;2023-05-14T02:49:00;6.40;;;5.90;;
817;SDS011;391;51.052;6.954;2023-05-14T02:51:04;7.70;;;7.00;;
817;SDS011;391;51.052;6.954;2023-05-14T02:53:07;6.40;;;5.90;;
817;SDS011;391;51.052;6.954;2023-05-14T02:55:11;7.60;;;6.90;;
817;SDS011;391;51.052;6.954;2023-05-14T02:57:14;7.93;;;7.23;;
817;SDS011;391;51.052;6.954;2023-05-14T02:59:18;5.90;;;5.40;;
817;SDS011;391;51.052;6.954;2023-05-14T03:01:23;6.20;;;5.80;;
817;SDS011;391;51.052;6.954;2023-05-14T03:03:27;8.10;;;7.30;;
817;SDS011;391;51.052;6.954;2023-05-14T03:05:32;7.37;;;6.70;;
817;SDS011;391;51.052;6.954;2023-05-14T03:07:35;7.30;;;6.63;;
817;SDS011;391;51.052;6.954;2023-05-14T03:09:38;6.03;;;5.63;;
817;SDS011;391;51.052;6.954;2023-05-14T03:11:42;6.90;;;6.30;;
817;SDS011;391;51.052;6.954;2023-05-14T03:13:45;7.00;;;6.47;;
817;SDS011;391;51.052;6.954;2023-05-14T03:15:49;6.40;;;5.87;;
817;SDS011;391;51.052;6.954;2023-05-14T03:17:57;6.50;;;5.97;;
817;SDS011;391;51.052;6.954;2023-05-14T03:20:01;6.10;;;5.67;;
817;SDS011;391;51.052;6.954;2023-05-14T03:22:05;6.97;;;6.30;;
817;SDS011;391;51.052;6.954;2023-05-14T03:24:08;7.17;;;6.57;;
817;SDS011;391;51.052;6.954;2023-05-14T03:26:12;6.50;;;5.90;;
817;SDS011;391;51.052;6.954;2023-05-14T03:28:15;6.83;;;6.33;;
817;SDS011;391;51.052;6.954;2023-05-14T03:30:19;7.30;;;6.80;;
817;SDS011;391;51.052;6.954;2023-05-14T03:32:23;7.20;;;6.70;;
817;SDS011;391;51.052;6.954;2023-05-14T03:34:28;7.33;;;6.73;;
817;SDS011;391;51.052;6.954;2023-05-14T03:36:31;6.87;;;6.27;;
817;SDS011;391;51.052;6.954;2023-05-14T03:38:37;7.20;;;6.60;;
817;SDS011;391;51.052;6.954;2023-05-14T03:40:40;7.00;;;6.40;;
817;SDS011;391;51.052;6.954;2023-05-14T03:42:44;7.07;;;6.37;;
817;SDS011;391;51.052;6.954;2023-05-14T03:44:49;7.30;;;6.70;;
817;SDS011;391;51.052;6.954;2023-05-14T03:46:52;7.80;;;7.20;;
817;SDS011;391;51.052;6.954;2023-05-14T03:48:56;7.93;;;7.17;;
817;SDS011;391;51.052;6.954;2023-05-14T03:51:02;8.20;;;7.50;;
817;SDS011;391;51.052;6.954;2023-05-14T03:53:05;6.27;;;5.77;;
817;SDS011;391;51.052;6.954;2023-05-14T03:55:09;6.57;;;5.90;;
817;SDS011;391;51.052;6.954;2023-05-14T03:57:12;7.57;;;6.93;;
817;SDS011;391;51.052;6.954;2023-05-14T03:59:16;7.20;;;6.57;;
817;SDS011;391;51.052;6.954;2023-05-14T04:01:20;6.67;;;6.17;;
817;SDS011;391;51.052;6.954;2023-05-14T04:03:24;6.30;;;5.80;;
817;SDS011;391;51.052;6.954;2023-05-14T04:05:28;7.13;;;6.50;;
817;SDS011;391;51.052;6.954;2023-05-14T04:07:32;14.47;;;13.07;;
817;SDS011;391;51.052;6.954;2023-05-14T04:09:36;15.20;;;13.60;;
817;SDS011;391;51.052;6.954;2023-05-14T04:11:39;12.23;;;10.97;;
817;SDS011;391;51.052;6.954;2023-05-14T04:13:43;9.83;;;9.03;;
817;SDS011;391;51.052;6.954;2023-05-14T04:15:47;9.37;;;8.57;;
817;SDS011;391;51.052;6.954;2023-05-14T04:17:51;8.70;;;7.93;;
817;SDS011;391;51.052;6.954;2023-05-14T04:19:55;8.13;;;7.53;;
817;SDS011;391;51.052;6.954;2023-05-14T04:22:04;9.00;;;8.20;;
817;SDS011;391;51.052;6.954;2023-05-14T04:24:08;8.50;;;7.70;;
817;SDS011;391;51.052;6.954;2023-05-14T04:26:12;7.63;;;7.03;;
817;SDS011;391;51.052;6.954;2023-05-14T04:28:15;6.80;;;6.13;;
817;SDS011;391;51.052;6.954;2023-05-14T04:30:19;7.20;;;6.70;;
817;SDS011;391;51.052;6.954;2023-05-14T04:32:23;7.70;;;7.03;;
817;SDS011;391;51.052;6.954;2023-05-14T04:34:27;7.20;;;6.50;;
817;SDS011;391;51.052;6.954;2023-05-14T04:36:30;6.90;;;6.40;;
817;SDS011;391;51.052;6.954;2023-05-14T04:38:34;7.00;;;6.37;;
817;SDS011;391;51.052;6.954;2023-05-14T04:40:38;7.30;;;6.70;;
817;SDS011;391;51.052;6.954;2023-05-14T04:42:42;6.93;;;6.43;;
817;SDS011;391;51.052;6.954;2023-05-14T04:44:46;8.20;;;7.50;;
817;SDS011;391;51.052;6.954;2023-05-14T04:46:49;6.30;;;5.80;;
817;SDS011;391;51.052;6.954;2023-05-14T04:48:53;7.53;;;6.70;;
817;SDS011;391;51.052;6.954;2023-05-14T04:50:57;7.87;;;7.27;;
817;SDS011;391;51.052;6.954;2023-05-14T04:53:00;8.40;;;7.63;;
817;SDS011;391;51.052;6.954;2023-05-14T04:55:04;7.70;;;7.00;;
817;SDS011;391;51.052;6.954;2023-05-14T04:57:10;7.87;;;7.17;;
817;SDS011;391;51.052;6.954;2023-05-14T04:59:15;8.53;;;7.73;;
817;SDS011;391;51.052;6.954;2023-05-14T05:01:18;8.40;;;7.70;;
817;SDS011;391;51.052;6.954;2023-05-14T05:03:21;8.10;;;7.30;;
817;SDS011;391;51.052;6.954;2023-05-14T05:05:25;8.03;;;7.33;;
817;SDS011;391;51.052;6.954;2023-05-14T05:07:28;7.73;;;7.13;;
817;SDS011;391;51.052;6.954;2023-05-14T05:09:32;7.23;;;6.73;;
817;SDS011;391;51.052;6.954;2023-05-14T05:11:35;8.00;;;7.30;;
817;SDS011;391;51.052;6.954;2023-05-14T05:13:41;14.60;;;9.23;;
817;SDS011;391;51.052;6.954;2023-05-14T05:15:44;8.63;;;7.83;;
817;SDS011;391;51.052;6.954;2023-05-14T05:17:48;8.60;;;7.90;;
817;SDS011;391;51.052;6.954;2023-05-14T05:19:51;9.23;;;8.43;;
817;SDS011;391;51.052;6.954;2023-05-14T05:21:55;9.00;;;8.30;;
817;SDS011;391;51.052;6.954;2023-05-14T05:23:58;8.53;;;7.93;;
817;SDS011;391;51.052;6.954;2023-05-14T05:26:06;9.70;;;8.87;;
817;SDS011;391;51.052;6.954;2023-05-14T05:28:09;9.57;;;8.77;;
817;SDS011;391;51.052;6.954;2023-05-14T05:30:14;9.67;;;8.80;;
817;SDS011;391;51.052;6.954;2023-05-14T05:32:18;10.73;;;9.63;;
817;SDS011;391;51.052;6.954;2023-05-14T05:34:21;12.17;;;11.10;;
817;SDS011;391;51.052;6.954;2023-05-14T05:36:25;10.93;;;9.83;;
817;SDS011;391;51.052;6.954;2023-05-14T05:38:29;11.30;;;10.30;;
817;SDS011;391;51.052;6.954;2023-05-14T05:40:33;10.90;;;9.93;;
817;SDS011;391;51.052;6.954;2023-05-14T05:42:36;12.30;;;11.40;;
817;SDS011;391;51.052;6.954;2023-05-14T05:44:40;12.70;;;11.50;;
817;SDS011;391;51.052;6.954;2023-05-14T05:46:44;11.97;;;10.97;;
817;SDS011;391;51.052;6.954;2023-05-14T05:48:48;14.77;;;13.47;;
817;SDS011;391;51.052;6.954;2023-05-14T05:50:52;16.27;;;14.67;;
817;SDS011;391;51.052;6.954;2023-05-14T05:52:55;17.80;;;16.40;;
817;SDS011;391;51.052;6.954;2023-05-14T05:55:00;19.17;;;17.40;;
817;SDS011;391;51.052;6.954;2023-05-14T05:57:03;18.67;;;16.97;;
817;SDS011;391;51.052;6.954;2023-05-14T05:59:07;17.03;;;15.43;;
817;SDS011;391;51.052;6.954;2023-05-14T06:01:10;17.20;;;15.80;;
817;SDS011;391;51.052;6.954;2023-05-14T06:03:15;18.10;;;16.40;;
817;SDS011;391;51.052;6.954;2023-05-14T06:05:19;17.07;;;15.40;;
817;SDS011;391;51.052;6.954;2023-05-14T06:07:23;14.93;;;13.53;;
817;SDS011;391;51.052;6.954;2023-05-14T06:09:26;13.10;;;11.90;;
817;SDS011;391;51.052;6.954;2023-05-14T06:11:30;13.93;;;12.57;;
817;SDS011;391;51.052;6.954;2023-05-14T06:13:33;12.90;;;11.80;;
817;SDS011;391;51.052;6.954;2023-05-14T06:15:36;13.67;;;12.47;;
817;SDS011;391;51.052;6.954;2023-05-14T06:17:40;24.10;;;21.80;;
817;SDS011;391;51.052;6.954;2023-05-14T06:19:45;21.93;;;19.73;;
817;SDS011;391;51.052;6.954;2023-05-14T06:21:49;18.00;;;16.20;;
817;SDS011;391;51.052;6.954;2023-05-14T06:23:52;15.00;;;13.67;;
817;SDS011;391;51.052;6.954;2023-05-14T06:25:56;13.67;;;12.47;;
817;SDS011;391;51.052;6.954;2023-05-14T06:27:59;15.40;;;13.90;;
817;SDS011;391;51.052;6.954;2023-05-14T06:30:03;13.30;;;12.20;;
817;SDS011;391;51.052;6.954;2023-05-14T06:32:07;13.03;;;12.03;;
817;SDS011;391;51.052;6.954;2023-05-14T06:34:11;11.60;;;10.70;;
817;SDS011;391;51.052;6.954;2023-05-14T06:36:16;14.73;;;13.63;;
817;SDS011;391;51.052;6.954;2023-05-14T06:38:19;18.67;;;17.07;;
817;SDS011;391;51.052;6.954;2023-05-14T06:40:23;18.20;;;16.40;;
817;SDS011;391;51.052;6.954;2023-05-14T06:42:26;17.37;;;15.73;;
817;SDS011;391;51.052;6.954;2023-05-14T06:44:31;17.83;;;16.33;;
817;SDS011;391;51.052;6.954;2023-05-14T06:46:35;19.07;;;17.57;;
817;SDS011;391;51.052;6.954;2023-05-14T06:48:39;17.83;;;16.40;;
817;SDS011;391;51.052;6.954;2023-05-14T06:50:42;17.90;;;16.40;;
817;SDS011;391;51.052;6.954;2023-05-14T06:52:47;17.23;;;15.73;;
817;SDS011;391;51.052;6.954;2023-05-14T06:54:50;15.53;;;14.23;;
817;SDS011;391;51.052;6.954;2023-05-14T06:56:54;15.10;;;13.80;;
817;SDS011;391;51.052;6.954;2023-05-14T06:58:58;17.73;;;16.30;;
817;SDS011;391;51.052;6.954;2023-05-14T07:01:01;18.87;;;17.17;;
817;SDS011;391;51.052;6.954;2023-05-14T07:03:05;16.30;;;15.00;;
817;SDS011;391;51.052;6.954;2023-05-14T07:05:09;15.60;;;14.30;;
817;SDS011;391;51.052;6.954;2023-05-14T07:07:12;24.30;;;21.90;;
817;SDS011;391;51.052;6.954;2023-05-14T07:09:20;23.47;;;21.13;;
817;SDS011;391;51.052;6.954;2023-05-14T07:11:23;17.90;;;16.40;;
817;SDS011;391;51.052;6.954;2023-05-14T07:13:27;16.10;;;14.77;;
817;SDS011;391;51.052;6.954;2023-05-14T07:15:30;20.80;;;18.77;;
817;SDS011;391;51.052;6.954;2023-05-14T07:17:34;22.50;;;20.33;;
817;SDS011;391;51.052;6.954;2023-05-14T07:19:38;21.80;;;19.80;;
817;SDS011;391;51.052;6.954;2023-05-14T07:21:42;18.13;;;16.47;;
817;SDS011;391;51.052;6.954;2023-05-14T07:23:45;16.27;;;14.87;;
817;SDS011;391;51.052;6.954;2023-05-14T07:25:50;14.67;;;13.37;;
817;SDS011;391;51.052;6.954;2023-05-14T07:27:53;16.73;;;15.27;;
817;SDS011;391;51.052;6.954;2023-05-14T07:29:57;16.30;;;15.00;;
817;SDS011;391;51.052;6.954;2023-05-14T07:32:00;16.47;;;15.07;;
817;SDS011;391;51.052;6.954;2023-05-14T07:34:03;15.53;;;14.23;;
817;SDS011;391;51.052;6.954;2023-05-14T07:36:07;14.70;;;13.50;;
817;SDS011;391;51.052;6.954;2023-05-14T07:38:11;14.43;;;13.20;;
817;SDS011;391;51.052;6.954;2023-05-14T07:40:14;12.83;;;11.83;;
817;SDS011;391;51.052;6.954;2023-05-14T07:42:19;11.20;;;10.40;;
817;SDS011;391;51.052;6.954;2023-05-14T07:44:37;10.67;;;9.87;;
817;SDS011;391;51.052;6.954;2023-05-14T07:46:40;11.70;;;10.70;;
817;SDS011;391;51.052;6.954;2023-05-14T07:48:47;12.37;;;11.37;;
817;SDS011;391;51.052;6.954;2023-05-14T07:50:50;12.67;;;10.67;;
817;SDS011;391;51.052;6.954;2023-05-14T07:52:54;18.43;;;16.73;;
817;SDS011;391;51.052;6.954;2023-05-14T07:54:58;14.57;;;13.13;;
817;SDS011;391;51.052;6.954;2023-05-14T07:57:02;11.53;;;10.33;;
817;SDS011;391;51.052;6.954;2023-05-14T07:59:08;9.67;;;8.90;;
817;SDS011;391;51.052;6.954;2023-05-14T08:01:11;18.97;;;17.07;;
817;SDS011;391;51.052;6.954;2023-05-14T08:03:15;16.17;;;14.63;;
817;SDS011;391;51.052;6.954;2023-05-14T08:05:19;11.93;;;10.93;;
817;SDS011;391;51.052;6.954;2023-05-14T08:07:22;12.17;;;11.27;;
817;SDS011;391;51.052;6.954;2023-05-14T08:09:26;10.93;;;10.03;;
817;SDS011;391;51.052;6.954;2023-05-14T08:11:30;10.20;;;9.40;;
817;SDS011;391;51.052;6.954;2023-05-14T08:13:33;8.87;;;8.17;;
817;SDS011;391;51.052;6.954;2023-05-14T08:15:38;9.93;;;8.97;;
817;SDS011;391;51.052;6.954;2023-05-14T08:17:41;9.60;;;8.70;;
817;SDS011;391;51.052;6.954;2023-05-14T08:19:45;9.40;;;8.70;;
817;SDS011;391;51.052;6.954;2023-05-14T08:21:49;8.90;;;8.20;;
817;SDS011;391;51.052;6.954;2023-05-14T08:23:52;7.73;;;7.13;;
817;SDS011;391;51.052;6.954;2023-05-14T08:25:56;8.03;;;7.40;;
817;SDS011;391;51.052;6.954;2023-05-14T08:28:00;8.53;;;7.87;;
817;SDS011;391;51.052;6.954;2023-05-14T08:30:04;9.23;;;8.53;;
817;SDS011;391;51.052;6.954;2023-05-14T08:32:10;9.27;;;8.53;;
817;SDS011;391;51.052;6.954;2023-05-14T08:34:24;11.83;;;10.70;;
817;SDS011;391;51.052;6.954;2023-05-14T08:36:29;11.23;;;10.23;;
817;SDS011;391;51.052;6.954;2023-05-14T08:38:32;10.43;;;9.53;;
817;SDS011;391;51.052;6.954;2023-05-14T08:40:35;9.70;;;8.80;;
817;SDS011;391;51.052;6.954;2023-05-14T08:42:39;9.17;;;8.37;;
817;SDS011;391;51.052;6.954;2023-05-14T08:44:46;10.20;;;9.50;;
817;SDS011;391;51.052;6.954;2023-05-14T08:46:51;13.33;;;12.13;;
817;SDS011;391;51.052;6.954;2023-05-14T08:48:59;11.83;;;10.73;;
817;SDS011;391;51.052;6.954;2023-05-14T08:51:11;9.90;;;9.10;;
817;SDS011;391;51.052;6.954;2023-05-14T08:53:17;9.63;;;8.83;;
817;SDS011;391;51.052;6.954;2023-05-14T08:55:20;10.17;;;9.30;;
817;SDS011;391;51.052;6.954;2023-05-14T08:57:24;11.10;;;10.20;;
817;SDS011;391;51.052;6.954;2023-05-14T08:59:28;9.17;;;8.47;;
817;SDS011;391;51.052;6.954;2023-05-14T09:01:32;10.70;;;9.90;;
817;SDS011;391;51.052;6.954;2023-05-14T09:03:35;10.97;;;10.17;;
817;SDS011;391;51.052;6.954;2023-05-14T09:05:41;9.40;;;8.57;;
817;SDS011;391;51.052;6.954;2023-05-14T09:07:45;11.20;;;10.27;;
817;SDS011;391;51.052;6.954;2023-05-14T09:09:49;9.50;;;8.60;;
817;SDS011;391;51.052;6.954;2023-05-14T09:11:53;9.77;;;8.97;;
817;SDS011;391;51.052;6.954;2023-05-14T09:13:56;11.50;;;10.60;;
817;SDS011;391;51.052;6.954;2023-05-14T09:16:00;10.77;;;9.80;;
817;SDS011;391;51.052;6.954;2023-05-14T09:18:04;8.77;;;8.17;;
817;SDS011;391;51.052;6.954;2023-05-14T09:20:09;10.07;;;9.30;;
817;SDS011;391;51.052;6.954;2023-05-14T09:22:17;9.97;;;9.07;;
817;SDS011;391;51.052;6.954;2023-05-14T09:24:22;8.70;;;8.10;;
817;SDS011;391;51.052;6.954;2023-05-14T09:26:26;8.33;;;7.17;;
817;SDS011;391;51.052;6.954;2023-05-14T09:28:38;10.10;;;9.30;;
817;SDS011;391;51.052;6.954;2023-05-14T09:30:45;8.20;;;7.50;;
817;SDS011;391;51.052;6.954;2023-05-14T09:32:52;9.10;;;8.27;;
817;SDS011;391;51.052;6.954;2023-05-14T09:34:56;7.87;;;7.27;;
817;SDS011;391;51.052;6.954;2023-05-14T09:37:00;8.90;;;8.20;;
817;SDS011;391;51.052;6.954;2023-05-14T09:39:08;7.10;;;6.60;;
817;SDS011;391;51.052;6.954;2023-05-14T09:41:12;8.10;;;7.40;;
817;SDS011;391;51.052;6.954;2023-05-14T09:43:15;7.10;;;6.60;;
817;SDS011;391;51.052;6.954;2023-05-14T09:45:19;7.33;;;6.70;;
817;SDS011;391;51.052;6.954;2023-05-14T09:47:22;6.93;;;6.43;;
817;SDS011;391;51.052;6.954;2023-05-14T09:49:26;8.00;;;7.10;;
817;SDS011;391;51.052;6.954;2023-05-14T09:51:30;6.60;;;6.00;;
817;SDS011;391;51.052;6.954;2023-05-14T09:53:34;6.87;;;6.47;;
817;SDS011;391;51.052;6.954;2023-05-14T09:55:39;6.37;;;5.90;;
817;SDS011;391;51.052;6.954;2023-05-14T09:57:42;6.30;;;5.80;;
817;SDS011;391;51.052;6.954;2023-05-14T09:59:46;9.07;;;7.33;;
817;SDS011;391;51.052;6.954;2023-05-14T10:01:49;8.63;;;7.93;;
817;SDS011;391;51.052;6.954;2023-05-14T10:03:54;9.43;;;8.70;;
817;SDS011;391;51.052;6.954;2023-05-14T10:05:59;8.97;;;8.37;;
817;SDS011;391;51.052;6.954;2023-05-14T10:08:07;11.57;;;10.67;;
817;SDS011;391;51.052;6.954;2023-05-14T10:10:17;11.77;;;10.80;;
817;SDS011;391;51.052;6.954;2023-05-14T10:12:23;11.33;;;10.43;;
817;SDS011;391;51.052;6.954;2023-05-14T10:14:31;9.10;;;8.30;;
817;SDS011;391;51.052;6.954;2023-05-14T10:16:42;9.13;;;8.43;;
817;SDS011;391;51.052;6.954;2023-05-14T10:18:49;10.27;;;9.47;;
817;SDS011;391;51.052;6.954;2023-05-14T10:20:59;11.47;;;10.43;;
817;SDS011;391;51.052;6.954;2023-05-14T10:23:07;10.10;;;9.20;;
817;SDS011;391;51.052;6.954;2023-05-14T10:25:11;9.20;;;8.50;;
817;SDS011;391;51.052;6.954;2023-05-14T10:27:15;11.10;;;10.20;;
817;SDS011;391;51.052;6.954;2023-05-14T10:29:20;10.07;;;9.27;;
817;SDS011;391;51.052;6.954;2023-05-14T10:31:47;12.60;;;11.50;;
817;SDS011;391;51.052;6.954;2023-05-14T10:33:52;10.33;;;9.53;;
817;SDS011;391;51.052;6.954;2023-05-14T10:35:56;11.30;;;10.30;;
817;SDS011;391;51.052;6.954;2023-05-14T10:38:06;11.53;;;10.53;;
817;SDS011;391;51.052;6.954;2023-05-14T10:40:10;9.47;;;8.57;;
817;SDS011;391;51.052;6.954;2023-05-14T10:42:15;13.40;;;11.20;;
817;SDS011;391;51.052;6.954;2023-05-14T10:44:22;8.80;;;8.10;;
817;SDS011;391;51.052;6.954;2023-05-14T10:46:25;7.10;;;6.60;;
817;SDS011;391;51.052;6.954;2023-05-14T10:48:29;9.00;;;8.20;;
817;SDS011;391;51.052;6.954;2023-05-14T10:50:32;8.53;;;7.83;;
817;SDS011;391;51.052;6.954;2023-05-14T10:52:36;9.53;;;6.80;;
817;SDS011;391;51.052;6.954;2023-05-14T10:54:40;6.50;;;5.80;;
817;SDS011;391;51.052;6.954;2023-05-14T10:56:50;6.57;;;6.07;;
817;SDS011;391;51.052;6.954;2023-05-14T10:58:56;5.70;;;5.30;;
817;SDS011;391;51.052;6.954;2023-05-14T11:01:01;5.43;;;4.73;;
817;SDS011;391;51.052;6.954;2023-05-14T11:03:07;5.27;;;4.77;;
817;SDS011;391;51.052;6.954;2023-05-14T11:05:11;6.83;;;6.23;;
817;SDS011;391;51.052;6.954;2023-05-14T11:07:17;5.97;;;5.53;;
817;SDS011;391;51.052;6.954;2023-05-14T11:09:25;5.80;;;5.40;;
817;SDS011;391;51.052;6.954;2023-05-14T11:11:29;6.50;;;6.00;;
817;SDS011;391;51.052;6.954;2023-05-14T11:13:33;7.90;;;7.27;;
817;SDS011;391;51.052;6.954;2023-05-14T11:15:37;8.70;;;7.80;;
817;SDS011;391;51.052;6.954;2023-05-14T11:17:49;9.00;;;8.20;;
817;SDS011;391;51.052;6.954;2023-05-14T11:19:53;8.60;;;7.90;;
817;SDS011;391;51.052;6.954;2023-05-14T11:21:58;12.17;;;11.07;;
817;SDS011;391;51.052;6.954;2023-05-14T11:24:02;9.97;;;9.07;;
817;SDS011;391;51.052;6.954;2023-05-14T11:26:06;9.30;;;8.47;;
817;SDS011;391;51.052;6.954;2023-05-14T11:28:10;8.10;;;7.50;;
817;SDS011;391;51.052;6.954;2023-05-14T11:30:14;9.57;;;8.87;;
817;SDS011;391;51.052;6.954;2023-05-14T11:32:18;10.10;;;9.30;;
817;SDS011;391;51.052;6.954;2023-05-14T11:34:23;7.90;;;7.20;;
817;SDS011;391;51.052;6.954;2023-05-14T11:36:27;10.37;;;9.47;;
817;SDS011;391;51.052;6.954;2023-05-14T11:38:30;9.10;;;8.50;;
817;SDS011;391;51.052;6.954;2023-05-14T11:40:34;8.30;;;7.70;;
817;SDS011;391;51.052;6.954;2023-05-14T11:42:37;8.83;;;7.40;;
817;SDS011;391;51.052;6.954;2023-05-14T11:44:41;8.43;;;7.73;;
817;SDS011;391;51.052;6.954;2023-05-14T11:46:52;8.43;;;7.73;;
817;SDS011;391;51.052;6.954;2023-05-14T11:48:56;9.07;;;8.37;;
817;SDS011;391;51.052;6.954;2023-05-14T11:51:01;8.20;;;7.40;;
817;SDS011;391;51.052;6.954;2023-05-14T11:53:06;7.07;;;6.37;;
817;SDS011;391;51.052;6.954;2023-05-14T11:55:10;7.80;;;7.23;;
817;SDS011;391;51.052;6.954;2023-05-14T11:57:15;7.10;;;6.50;;
817;SDS011;391;51.052;6.954;2023-05-14T11:59:20;7.63;;;6.93;;
817;SDS011;391;51.052;6.954;2023-05-14T12:01:24;6.43;;;5.93;;
817;SDS011;391;51.052;6.954;2023-05-14T12:03:29;5.33;;;4.83;;
817;SDS011;391;51.052;6.954;2023-05-14T12:05:33;4.70;;;4.37;;
817;SDS011;391;51.052;6.954;2023-05-14T12:07:42;4.80;;;4.40;;
817;SDS011;391;51.052;6.954;2023-05-14T12:09:47;4.77;;;4.40;;
817;SDS011;391;51.052;6.954;2023-05-14T12:11:51;4.30;;;3.90;;
817;SDS011;391;51.052;6.954;2023-05-14T12:13:55;5.50;;;4.00;;
817;SDS011;391;51.052;6.954;2023-05-14T12:15:59;3.30;;;3.07;;
817;SDS011;391;51.052;6.954;2023-05-14T12:18:07;3.70;;;3.40;;
817;SDS011;391;51.052;6.954;2023-05-14T12:20:24;3.70;;;3.40;;
817;SDS011;391;51.052;6.954;2023-05-14T12:22:29;3.20;;;2.53;;
817;SDS011;391;51.052;6.954;2023-05-14T12:24:34;3.10;;;2.90;;
817;SDS011;391;51.052;6.954;2023-05-14T12:26:38;4.53;;;2.93;;
817;SDS011;391;51.052;6.954;2023-05-14T12:28:42;3.63;;;3.33;;
817;SDS011;391;51.052;6.954;2023-05-14T12:30:54;4.17;;;3.07;;
817;SDS011;391;51.052;6.954;2023-05-14T12:32:58;3.77;;;3.47;;
817;SDS011;391;51.052;6.954;2023-05-14T12:35:02;3.70;;;3.40;;
817;SDS011;391;51.052;6.954;2023-05-14T12:37:06;3.87;;;3.57;;
817;SDS011;391;51.052;6.954;2023-05-14T12:39:09;4.00;;;3.63;;
817;SDS011;391;51.052;6.954;2023-05-14T12:41:15;3.20;;;3.00;;
817;SDS011;391;51.052;6.954;2023-05-14T12:43:18;3.60;;;3.30;;
817;SDS011;391;51.052;6.954;2023-05-14T12:45:22;4.07;;;3.67;;
817;SDS011;391;51.052;6.954;2023-05-14T12:47:26;3.50;;;3.20;;
817;SDS011;391;51.052;6.954;2023-05-14T12:49:29;3.57;;;3.30;;
817;SDS011;391;51.052;6.954;2023-05-14T12:51:33;4.00;;;3.27;;
817;SDS011;391;51.052;6.954;2023-05-14T12:53:36;3.80;;;3.50;;
817;SDS011;391;51.052;6.954;2023-05-14T12:55:40;6.20;;;3.10;;
817;SDS011;391;51.052;6.954;2023-05-14T12:57:45;4.00;;;3.70;;
817;SDS011;391;51.052;6.954;2023-05-14T12:59:48;3.60;;;3.40;;
817;SDS011;391;51.052;6.954;2023-05-14T13:01:52;3.40;;;3.20;;
817;SDS011;391;51.052;6.954;2023-05-14T13:03:55;3.60;;;3.30;;
817;SDS011;391;51.052;6.954;2023-05-14T13:05:59;4.10;;;3.57;;
817;SDS011;391;51.052;6.954;2023-05-14T13:08:03;3.83;;;3.53;;
817;SDS011;391;51.052;6.954;2023-05-14T13:10:07;4.40;;;3.40;;
817;SDS011;391;51.052;6.954;2023-05-14T13:12:11;4.00;;;3.70;;